createdAt,value
2022-09-26T00:01:08.015Z,71.27
2022-09-26T00:03:36.290Z,71.93
2022-09-26T00:06:04.805Z,70.30
2022-09-26T00:08:32.839Z,70.07
2022-09-26T00:11:02.411Z,69.87
2022-09-26T00:13:33.110Z,67.97
2022-09-26T00:16:00.732Z,66.47
2022-09-26T00:18:28.393Z,70.60
2022-09-26T00:21:04.261Z,69.33
2022-09-26T00:23:31.902Z,69.27
2022-09-26T00:25:59.887Z,67.70
2022-09-26T00:28:27.805Z,67.60
2022-09-26T00:30:57.465Z,68.60
2022-09-26T00:33:25.900Z,67.57
2022-09-26T00:35:54.820Z,68.33
2022-09-26T00:38:22.999Z,68.63
2022-09-26T00:40:51.111Z,66.40
2022-09-26T00:43:32.491Z,67.00
2022-09-26T00:46:05.721Z,67.97
2022-09-26T00:48:36.479Z,65.67
2022-09-26T00:51:05.353Z,66.37
2022-09-26T00:53:37.097Z,68.63
2022-09-26T00:56:09.937Z,68.30
2022-09-26T00:58:42.612Z,69.60
2022-09-26T01:01:12.138Z,67.70
2022-09-26T01:03:42.693Z,67.47
2022-09-26T01:06:10.571Z,68.40
2022-09-26T01:08:43.022Z,66.60
2022-09-26T01:11:16.676Z,67.10
2022-09-26T01:13:45.525Z,66.87
2022-09-26T01:16:14.449Z,70.10
2022-09-26T01:18:42.592Z,67.47
2022-09-26T01:21:30.409Z,67.73
2022-09-26T01:24:24.530Z,71.40
2022-09-26T01:27:15.348Z,69.40
2022-09-26T01:30:08.659Z,68.57
2022-09-26T01:32:53.589Z,70.03
2022-09-26T01:35:51.362Z,66.83
2022-09-26T01:38:28.108Z,69.43
2022-09-26T01:41:09.828Z,67.93
2022-09-26T01:43:43.738Z,70.83
2022-09-26T01:46:22.532Z,69.73
2022-09-26T01:48:56.167Z,66.80
2022-09-26T01:51:29.974Z,69.47
2022-09-26T01:54:02.778Z,70.37
2022-09-26T01:56:35.306Z,69.07
2022-09-26T01:59:08.981Z,68.60
2022-09-26T02:01:42.506Z,68.17
2022-09-26T02:04:13.127Z,67.87
2022-09-26T02:06:45.499Z,69.80
2022-09-26T02:09:15.950Z,70.00
2022-09-26T02:11:46.924Z,68.67
2022-09-26T02:14:19.375Z,69.80
2022-09-26T02:16:50.574Z,71.20
2022-09-26T02:19:21.555Z,68.63
2022-09-26T02:21:49.937Z,67.57
2022-09-26T02:24:17.763Z,65.60
2022-09-26T02:26:45.445Z,66.90
2022-09-26T02:29:14.936Z,68.17
2022-09-26T02:31:49.153Z,67.33
2022-09-26T02:34:18.098Z,68.80
2022-09-26T02:36:46.313Z,68.70
2022-09-26T02:39:14.525Z,69.63
2022-09-26T02:41:50.775Z,66.30
2022-09-26T02:44:33.738Z,67.97
2022-09-26T02:47:17.495Z,67.67
2022-09-26T02:50:01.526Z,68.90
2022-09-26T02:52:39.886Z,70.13
2022-09-26T02:55:16.192Z,67.00
2022-09-26T02:57:53.135Z,65.73
2022-09-26T03:00:24.970Z,63.03
2022-09-26T03:03:03.659Z,65.37
2022-09-26T03:05:36.065Z,63.63
2022-09-26T03:08:09.248Z,64.90
2022-09-26T03:10:39.102Z,62.73
2022-09-26T03:13:11.144Z,63.40
2022-09-26T03:15:41.652Z,65.10
2022-09-26T03:18:13.413Z,64.70
2022-09-26T03:20:42.492Z,68.47
2022-09-26T03:23:10.173Z,66.57
2022-09-26T03:25:38.189Z,64.93
2022-09-26T03:28:05.834Z,63.53
2022-09-26T03:30:33.489Z,62.80
2022-09-26T03:33:03.121Z,65.87
2022-09-26T03:35:30.705Z,65.53
2022-09-26T03:37:59.547Z,64.20
2022-09-26T03:40:27.200Z,69.37
2022-09-26T03:42:54.739Z,69.00
2022-09-26T03:45:22.320Z,65.90
2022-09-26T03:47:56.566Z,67.03
2022-09-26T03:50:24.573Z,66.67
2022-09-26T03:52:52.398Z,63.57
2022-09-26T03:55:21.358Z,63.30
2022-09-26T03:57:48.848Z,64.13
2022-09-26T04:00:16.581Z,62.23
2022-09-26T04:02:44.371Z,60.83
2022-09-26T04:05:11.982Z,61.73
2022-09-26T04:07:39.496Z,61.03
2022-09-26T04:10:08.326Z,65.10
2022-09-26T04:12:37.220Z,63.60
2022-09-26T04:15:05.320Z,65.40
2022-09-26T04:17:32.847Z,66.13
2022-09-26T04:20:00.552Z,62.00
2022-09-26T04:22:28.249Z,63.20
2022-09-26T04:24:55.937Z,66.07
2022-09-26T04:27:23.644Z,62.00
2022-09-26T04:29:52.609Z,63.37
2022-09-26T04:32:20.169Z,70.83
2022-09-26T04:34:47.710Z,66.70
2022-09-26T04:37:15.261Z,69.03
2022-09-26T04:39:43.669Z,62.90
2022-09-26T04:42:11.174Z,68.70
2022-09-26T04:44:38.735Z,62.77
2022-09-26T04:47:08.316Z,65.90
2022-09-26T04:49:35.959Z,64.47
2022-09-26T04:52:03.497Z,64.93
2022-09-26T04:54:31.024Z,65.47
2022-09-26T04:57:01.166Z,66.50
2022-09-26T04:59:28.726Z,67.67
2022-09-26T05:01:56.367Z,67.70
2022-09-26T05:04:27.608Z,69.23
2022-09-26T05:06:57.566Z,66.70
2022-09-26T05:09:25.266Z,67.10
2022-09-26T05:11:52.855Z,66.47
2022-09-26T05:14:20.425Z,67.37
2022-09-26T05:16:48.628Z,66.87
2022-09-26T05:19:16.264Z,66.13
2022-09-26T05:21:45.178Z,65.00
2022-09-26T05:24:30.604Z,66.13
2022-09-26T05:26:58.183Z,63.80
2022-09-26T05:29:25.715Z,62.87
2022-09-26T05:31:54.163Z,62.87
2022-09-26T05:34:22.734Z,64.17
2022-09-26T05:36:51.790Z,62.10
2022-09-26T05:39:41.655Z,64.70
2022-09-26T05:42:10.093Z,64.13
2022-09-26T05:44:39.755Z,63.60
2022-09-26T05:47:08.566Z,67.80
2022-09-26T05:49:36.242Z,67.40
2022-09-26T05:52:05.225Z,66.43
2022-09-26T05:54:32.819Z,67.20
2022-09-26T05:57:00.834Z,65.90
2022-09-26T05:59:28.399Z,64.20
2022-09-26T06:01:58.199Z,67.37
2022-09-26T06:04:25.805Z,68.77
2022-09-26T06:06:53.358Z,70.50
2022-09-26T06:09:23.097Z,69.93
2022-09-26T06:11:50.637Z,71.00
2022-09-26T06:14:18.151Z,73.83
2022-09-26T06:16:45.664Z,69.77
2022-09-26T06:19:13.228Z,71.03
2022-09-26T06:21:40.931Z,70.53
2022-09-26T06:24:08.823Z,70.00
2022-09-26T06:26:38.074Z,72.33
2022-09-26T06:29:07.425Z,71.53
2022-09-26T06:31:35.217Z,72.50
2022-09-26T06:34:02.807Z,74.13
2022-09-26T06:36:31.470Z,74.07
2022-09-26T06:38:58.993Z,74.03
2022-09-26T06:41:27.426Z,76.40
2022-09-26T06:43:56.815Z,75.67
2022-09-26T06:46:24.417Z,75.33
2022-09-26T06:48:51.974Z,75.80
2022-09-26T06:51:20.007Z,79.23
2022-09-26T06:53:47.574Z,81.97
2022-09-26T06:56:15.107Z,79.37
2022-09-26T06:58:43.008Z,78.77
2022-09-26T07:01:12.446Z,75.70
2022-09-26T07:03:44.560Z,81.10
2022-09-26T07:06:13.970Z,78.47
2022-09-26T07:09:01.602Z,75.60
2022-09-26T07:11:56.636Z,76.87
2022-09-26T07:14:17.264Z,76.40
2022-09-26T07:16:46.182Z,72.97
2022-09-26T07:19:13.935Z,74.80
2022-09-26T07:21:41.590Z,74.60
2022-09-26T07:24:14.008Z,74.23
2022-09-26T07:26:41.931Z,75.50
2022-09-26T07:29:09.783Z,73.53
2022-09-26T07:31:37.997Z,76.23
2022-09-26T07:34:08.498Z,75.43
2022-09-26T07:36:36.167Z,75.37
2022-09-26T07:39:03.720Z,75.40
2022-09-26T07:41:31.440Z,73.30
2022-09-26T07:47:04.113Z,72.23
2022-09-26T07:50:02.012Z,72.57
2022-09-26T07:52:29.838Z,72.47
2022-09-26T07:54:57.469Z,75.63
2022-09-26T07:57:25.060Z,76.87
2022-09-26T07:59:54.216Z,73.73
2022-09-26T08:02:22.947Z,73.20
2022-09-26T08:04:58.836Z,69.47
2022-09-26T08:07:28.389Z,73.07
2022-09-26T08:09:56.244Z,70.20
2022-09-26T08:12:23.913Z,68.43
2022-09-26T08:14:52.944Z,69.40
2022-09-26T08:17:21.261Z,70.13
2022-09-26T08:19:49.198Z,67.27
2022-09-26T08:22:18.063Z,67.43
2022-09-26T08:24:49.695Z,67.10
2022-09-26T08:27:17.304Z,69.37
2022-09-26T08:29:48.498Z,66.97
2022-09-26T08:32:16.306Z,66.87
2022-09-26T08:34:44.384Z,68.13
2022-09-26T08:37:12.047Z,67.90
2022-09-26T08:39:40.913Z,67.80
2022-09-26T08:42:23.887Z,66.03
2022-09-26T08:45:33.600Z,65.83
2022-09-26T08:48:07.408Z,65.47
2022-09-26T08:50:44.324Z,65.00
2022-09-26T08:53:16.702Z,65.80
2022-09-26T08:55:47.553Z,64.40
2022-09-26T08:58:19.745Z,66.80
2022-09-26T09:00:51.422Z,65.20
2022-09-26T09:03:27.033Z,67.50
2022-09-26T09:06:00.625Z,68.97
2022-09-26T09:08:39.899Z,66.10
2022-09-26T09:11:21.000Z,68.20
2022-09-26T09:14:09.430Z,67.53
2022-09-26T09:16:53.262Z,66.37
2022-09-26T09:19:34.211Z,68.00
2022-09-26T09:22:16.747Z,65.00
2022-09-26T09:24:57.094Z,66.33
2022-09-26T09:27:54.712Z,64.80
2022-09-26T09:30:25.103Z,61.60
2022-09-26T09:32:56.797Z,61.07
2022-09-26T09:35:43.563Z,62.40
2022-09-26T09:38:17.221Z,61.13
2022-09-26T09:40:51.197Z,60.73
2022-09-26T09:43:27.919Z,60.20
2022-09-26T09:46:00.060Z,60.63
2022-09-26T09:48:28.691Z,59.90
2022-09-26T09:51:10.496Z,59.87
2022-09-26T09:54:00.767Z,60.77
2022-09-26T09:56:39.261Z,58.77
2022-09-26T09:59:29.107Z,61.20
2022-09-26T10:02:10.619Z,60.97
2022-09-26T10:04:44.314Z,57.80
2022-09-26T10:07:11.882Z,59.30
2022-09-26T10:09:41.524Z,60.37
2022-09-26T10:12:16.620Z,62.00
2022-09-26T10:14:51.005Z,59.97
2022-09-26T10:17:23.148Z,59.97
2022-09-26T10:19:51.534Z,59.63
2022-09-26T10:22:24.925Z,60.13
2022-09-26T10:24:54.631Z,61.03
2022-09-26T10:27:35.002Z,59.70
2022-09-26T10:30:09.945Z,59.60
2022-09-26T10:32:47.111Z,59.60
2022-09-26T10:35:20.029Z,58.20
2022-09-26T10:37:50.919Z,58.20
2022-09-26T10:40:43.636Z,58.30
2022-09-26T10:43:30.494Z,59.70
2022-09-26T10:46:04.699Z,58.60
2022-09-26T10:48:48.037Z,57.83
2022-09-26T10:51:27.690Z,59.20
2022-09-26T10:54:04.012Z,61.07
2022-09-26T10:56:36.843Z,59.10
2022-09-26T10:59:08.194Z,70.47
2022-09-26T11:01:42.965Z,61.67
2022-09-26T11:04:38.066Z,58.93
2022-09-26T11:07:08.341Z,60.83
2022-09-26T11:09:36.972Z,61.37
2022-09-26T11:12:25.213Z,60.50
2022-09-26T11:14:57.718Z,58.93
2022-09-26T11:17:43.263Z,58.70
2022-09-26T11:20:15.886Z,58.50
2022-09-26T11:22:49.247Z,58.90
2022-09-26T11:25:24.141Z,58.60
2022-09-26T11:27:57.293Z,58.50
2022-09-26T11:30:27.876Z,57.93
2022-09-26T11:33:00.379Z,57.57
2022-09-26T11:35:43.442Z,58.70
2022-09-26T11:38:24.545Z,57.50
2022-09-26T11:41:08.039Z,61.20
2022-09-26T11:43:54.159Z,64.40
2022-09-26T11:46:35.868Z,64.00
2022-09-26T11:49:24.046Z,63.90
2022-09-26T11:52:07.126Z,63.40
2022-09-26T11:54:59.669Z,65.97
2022-09-26T11:57:38.223Z,62.27
2022-09-26T12:00:15.730Z,59.77
2022-09-26T12:03:12.642Z,58.30
2022-09-26T12:05:50.319Z,57.90
2022-09-26T12:08:30.172Z,58.30
2022-09-26T12:11:06.736Z,59.60
2022-09-26T12:13:47.185Z,57.80
2022-09-26T12:16:22.210Z,57.80
2022-09-26T12:18:59.437Z,59.00
2022-09-26T12:21:39.778Z,57.97
2022-09-26T12:24:14.113Z,58.10
2022-09-26T12:26:48.968Z,57.63
2022-09-26T12:29:28.034Z,58.00
2022-09-26T12:32:14.674Z,58.50
2022-09-26T12:35:00.131Z,59.27
2022-09-26T12:37:50.346Z,57.90
2022-09-26T12:40:29.185Z,57.53
2022-09-26T12:43:24.375Z,57.10
2022-09-26T12:46:09.856Z,57.40
2022-09-26T12:48:54.714Z,57.13
2022-09-26T12:51:33.447Z,58.13
2022-09-26T12:54:19.430Z,57.60
2022-09-26T12:56:53.115Z,57.33
2022-09-26T12:59:37.834Z,56.90
2022-09-26T13:02:25.143Z,61.17
2022-09-26T13:05:17.483Z,57.17
2022-09-26T13:07:58.248Z,58.20
2022-09-26T13:10:39.002Z,63.60
2022-09-26T13:13:43.873Z,63.97
2022-09-26T13:16:21.437Z,64.10
2022-09-26T13:18:53.694Z,57.70
2022-09-26T13:21:28.446Z,60.90
2022-09-26T13:24:00.480Z,61.37
2022-09-26T13:26:34.745Z,57.60
2022-09-26T13:29:17.263Z,57.87
2022-09-26T13:31:51.108Z,57.70
2022-09-26T13:34:26.238Z,57.20
2022-09-26T13:36:56.231Z,57.17
2022-09-26T13:39:32.516Z,57.10
2022-09-26T13:42:07.505Z,57.23
2022-09-26T13:44:57.432Z,57.10
2022-09-26T13:47:35.752Z,57.30
2022-09-26T13:50:16.476Z,59.77
2022-09-26T13:52:52.773Z,58.70
2022-09-26T13:55:22.497Z,56.70
2022-09-26T13:58:06.677Z,57.00
2022-09-26T14:00:49.070Z,60.37
2022-09-26T14:03:42.377Z,58.03
2022-09-26T14:06:36.168Z,55.90
2022-09-26T14:09:23.780Z,56.20
2022-09-26T14:11:55.145Z,56.20
2022-09-26T14:14:27.103Z,57.60
2022-09-26T14:16:56.619Z,56.07
2022-09-26T14:19:35.815Z,56.90
2022-09-26T14:22:05.628Z,57.07
2022-09-26T14:24:38.443Z,56.20
2022-09-26T14:27:22.259Z,56.03
2022-09-26T14:29:55.066Z,56.00
2022-09-26T14:32:28.176Z,55.87
2022-09-26T14:34:59.269Z,56.20
2022-09-26T14:37:40.260Z,55.70
2022-09-26T14:40:35.280Z,56.50
2022-09-26T14:43:13.781Z,57.03
2022-09-26T14:45:57.690Z,56.53
2022-09-26T14:48:33.406Z,56.10
2022-09-26T14:51:05.207Z,55.77
2022-09-26T14:53:41.105Z,55.37
2022-09-26T14:56:13.369Z,55.73
2022-09-26T14:58:50.995Z,56.30
2022-09-26T15:01:28.263Z,60.77
2022-09-26T15:04:02.911Z,61.57
2022-09-26T15:06:32.333Z,57.40
2022-09-26T15:09:00.303Z,59.87
2022-09-26T15:11:34.783Z,56.10
2022-09-26T15:14:14.406Z,55.23
2022-09-26T15:16:48.234Z,55.33
2022-09-26T15:19:19.191Z,56.10
2022-09-26T15:21:52.381Z,58.00
2022-09-26T15:24:28.289Z,56.63
2022-09-26T15:27:00.846Z,57.87
2022-09-26T15:29:28.735Z,57.50
2022-09-26T15:31:57.862Z,59.70
2022-09-26T15:34:33.202Z,56.80
2022-09-26T15:37:02.361Z,56.37
2022-09-26T15:39:43.396Z,55.80
2022-09-26T15:42:44.603Z,57.07
2022-09-26T15:45:29.793Z,56.43
2022-09-26T15:48:01.005Z,56.50
2022-09-26T15:50:32.706Z,56.93
2022-09-26T15:53:07.030Z,56.23
2022-09-26T15:55:41.307Z,55.83
2022-09-26T15:58:16.271Z,56.33
2022-09-26T16:00:49.463Z,56.73
2022-09-26T16:03:37.857Z,57.70
2022-09-26T16:06:21.968Z,56.60
2022-09-26T16:08:56.447Z,57.17
2022-09-26T16:11:25.700Z,55.97
2022-09-26T16:13:54.337Z,56.27
2022-09-26T16:16:26.971Z,56.07
2022-09-26T16:18:58.668Z,57.57
2022-09-26T16:21:27.652Z,56.57
2022-09-26T16:23:57.798Z,58.90
2022-09-26T16:26:33.850Z,61.00
2022-09-26T16:29:01.562Z,64.73
2022-09-26T16:31:39.247Z,61.07
2022-09-26T16:34:21.089Z,61.43
2022-09-26T16:36:50.093Z,59.50
2022-09-26T16:39:22.056Z,59.30
2022-09-26T16:42:02.292Z,58.47
2022-09-26T16:44:35.789Z,58.10
2022-09-26T16:47:06.774Z,57.17
2022-09-26T16:49:51.140Z,56.80
2022-09-26T16:52:29.741Z,57.10
2022-09-26T16:54:58.939Z,63.73
2022-09-26T16:57:28.921Z,60.47
2022-09-26T17:00:15.232Z,62.23
2022-09-26T17:02:43.466Z,64.20
2022-09-26T17:05:18.382Z,62.27
2022-09-26T17:07:46.500Z,61.90
2022-09-26T17:10:14.374Z,60.10
2022-09-26T17:12:42.481Z,57.60
2022-09-26T17:15:20.362Z,57.83
2022-09-26T17:17:54.171Z,57.47
2022-09-26T17:20:23.891Z,60.00
2022-09-26T17:22:51.962Z,59.50
2022-09-26T17:25:19.893Z,58.60
2022-09-26T17:27:54.626Z,59.53
2022-09-26T17:30:22.157Z,60.87
2022-09-26T17:32:54.441Z,63.87
2022-09-26T17:35:26.626Z,59.37
2022-09-26T17:37:55.084Z,62.70
2022-09-26T17:40:25.341Z,60.30
2022-09-26T17:42:55.165Z,64.80
2022-09-26T17:45:28.528Z,61.40
2022-09-26T17:47:57.969Z,63.37
2022-09-26T17:50:29.900Z,61.70
2022-09-26T17:52:58.813Z,59.57
2022-09-26T17:55:27.081Z,57.80
2022-09-26T17:57:56.851Z,58.33
2022-09-26T18:00:24.378Z,59.70
2022-09-26T18:02:55.689Z,61.80
2022-09-26T18:05:26.317Z,58.20
2022-09-26T18:07:59.034Z,64.03
2022-09-26T18:10:30.376Z,59.70
2022-09-26T18:13:00.479Z,62.60
2022-09-26T18:15:30.881Z,63.60
2022-09-26T18:18:00.268Z,61.97
2022-09-26T18:20:37.041Z,64.03
2022-09-26T18:23:07.610Z,61.47
2022-09-26T18:25:37.173Z,60.40
2022-09-26T18:28:08.137Z,60.00
2022-09-26T18:30:35.881Z,59.20
2022-09-26T18:33:05.803Z,59.27
2022-09-26T18:35:33.333Z,57.73
2022-09-26T18:38:00.862Z,57.70
2022-09-26T18:40:31.107Z,58.30
2022-09-26T18:42:59.316Z,61.73
2022-09-26T18:45:29.094Z,62.77
2022-09-26T18:47:57.148Z,63.10
2022-09-26T18:50:29.995Z,61.53
2022-09-26T18:52:57.533Z,59.07
2022-09-26T18:55:44.039Z,55.63
2022-09-26T18:58:27.293Z,55.60
2022-09-26T19:00:57.869Z,56.20
2022-09-26T19:03:28.195Z,54.77
2022-09-26T19:06:02.839Z,55.40
2022-09-26T19:08:33.990Z,55.90
2022-09-26T19:11:09.901Z,56.20
2022-09-26T19:13:38.792Z,56.50
2022-09-26T19:16:07.041Z,55.83
2022-09-26T19:18:34.621Z,55.87
2022-09-26T19:21:03.764Z,56.03
2022-09-26T19:23:35.422Z,56.17
2022-09-26T19:26:03.513Z,55.70
2022-09-26T19:28:35.363Z,56.27
2022-09-26T19:31:04.967Z,56.40
2022-09-26T19:33:32.813Z,55.90
2022-09-26T19:36:00.409Z,56.13
2022-09-26T19:38:28.404Z,56.60
2022-09-26T19:40:56.660Z,56.53
2022-09-26T19:43:24.281Z,58.23
2022-09-26T19:45:55.539Z,56.60
2022-09-26T19:48:24.886Z,57.67
2022-09-26T19:50:53.729Z,61.40
2022-09-26T19:53:23.644Z,60.43
2022-09-26T19:55:51.505Z,57.47
2022-09-26T19:58:21.682Z,56.83
2022-09-26T20:00:51.656Z,57.70
2022-09-26T20:03:21.043Z,56.90
2022-09-26T20:05:50.776Z,55.70
2022-09-26T20:08:21.889Z,56.63
2022-09-26T20:10:49.619Z,56.03
2022-09-26T20:13:17.235Z,55.57
2022-09-26T20:15:45.965Z,55.97
2022-09-26T20:18:16.804Z,55.80
2022-09-26T20:20:53.145Z,56.70
2022-09-26T20:23:24.707Z,55.77
2022-09-26T20:25:54.688Z,55.90
2022-09-26T20:28:22.690Z,55.83
2022-09-26T20:30:52.334Z,55.90
2022-09-26T20:33:22.362Z,56.27
2022-09-26T20:35:53.581Z,56.30
2022-09-26T20:38:27.146Z,56.70
2022-09-26T20:41:00.761Z,57.90
2022-09-26T20:43:33.421Z,56.70
2022-09-26T20:46:03.955Z,56.40
2022-09-26T20:48:34.400Z,55.70
2022-09-26T20:51:02.599Z,56.17
2022-09-26T20:53:31.714Z,55.50
2022-09-26T20:55:59.323Z,55.50
2022-09-26T20:58:26.863Z,56.10
2022-09-26T21:00:54.551Z,55.80
2022-09-26T21:03:25.542Z,55.80
2022-09-26T21:05:53.226Z,56.80
2022-09-26T21:08:27.239Z,56.10
2022-09-26T21:10:57.729Z,55.20
2022-09-26T21:13:25.282Z,55.30
2022-09-26T21:15:53.843Z,55.67
2022-09-26T21:18:25.329Z,55.63
2022-09-26T21:20:53.747Z,55.90
2022-09-26T21:23:22.402Z,56.80
2022-09-26T21:25:50.372Z,56.80
2022-09-26T21:28:26.469Z,57.10
2022-09-26T21:30:55.722Z,58.50
2022-09-26T21:33:24.018Z,56.90
2022-09-26T21:35:52.276Z,57.90
2022-09-26T21:38:21.235Z,58.70
2022-09-26T21:40:53.510Z,57.50
2022-09-26T21:43:26.868Z,57.07
2022-09-26T21:45:54.616Z,59.17
2022-09-26T21:48:22.630Z,57.50
2022-09-26T21:50:57.949Z,57.23
2022-09-26T21:53:30.917Z,58.87
2022-09-26T21:56:07.322Z,57.67
2022-09-26T21:58:40.190Z,59.00
2022-09-26T22:01:08.688Z,59.47
2022-09-26T22:03:36.594Z,57.20
2022-09-26T22:06:07.538Z,57.00
2022-09-26T22:08:35.360Z,59.67
2022-09-26T22:11:03.583Z,57.50
2022-09-26T22:13:33.095Z,59.40
2022-09-26T22:16:06.790Z,57.17
2022-09-26T22:18:34.513Z,57.50
2022-09-26T22:21:04.797Z,58.40
2022-09-26T22:23:32.416Z,59.97
2022-09-26T22:26:00.036Z,57.47
2022-09-26T22:28:27.777Z,57.93
2022-09-26T22:30:55.587Z,57.50
2022-09-26T22:33:24.600Z,57.00
2022-09-26T22:35:52.262Z,56.90
2022-09-26T22:38:19.790Z,58.40
2022-09-26T22:40:57.071Z,59.43
2022-09-26T22:43:24.952Z,58.50
2022-09-26T22:45:52.727Z,57.77
2022-09-26T22:48:20.558Z,60.80
2022-09-26T22:50:49.669Z,59.50
2022-09-26T22:53:17.201Z,60.47
2022-09-26T22:55:52.574Z,59.13
2022-09-26T22:58:20.159Z,60.93
2022-09-26T23:00:48.040Z,60.17
2022-09-26T23:03:15.614Z,60.70
2022-09-26T23:05:43.268Z,60.40
2022-09-26T23:08:12.115Z,61.50
2022-09-26T23:10:39.649Z,61.10
2022-09-26T23:13:07.252Z,60.40
2022-09-26T23:15:34.811Z,59.10
2022-09-26T23:18:02.369Z,61.20
2022-09-26T23:20:29.902Z,59.93
2022-09-26T23:22:57.924Z,59.70
2022-09-26T23:25:26.835Z,62.00
2022-09-26T23:27:54.352Z,60.30
2022-09-26T23:30:22.841Z,62.43
2022-09-26T23:32:50.391Z,61.90
2022-09-26T23:35:16.787Z,62.30
2022-09-26T23:37:44.352Z,61.60
2022-09-26T23:40:12.075Z,61.03
2022-09-26T23:42:41.023Z,59.50
2022-09-26T23:45:09.606Z,63.03
2022-09-26T23:47:37.121Z,61.77
2022-09-26T23:50:05.300Z,62.40
2022-09-26T23:52:32.842Z,61.47
2022-09-26T23:55:00.525Z,62.53
2022-09-26T23:57:28.056Z,60.60
2022-09-26T23:59:56.941Z,61.67
